Terminal Aerodrome Forecast
Issued by NWS

Home | Current Version | Previous Version | Text Only | Print | Product List | Glossary On
Versions: 1 2 3 4 5 6 7 8 9 10 11 12 13 14 15 16 17 18 19 20 21 22 23 24 25 26 27 28 29 30 31 32
000
FTUS45 KSLC 022325
TAFEVW
TAF
KEVW 022325Z 0300/0324 25019G27KT P6SM FEW100
     FM030200 25011KT P6SM SKC
     FM030500 21008KT P6SM SKC
     FM031700 24020G30KT P6SM SCT200=

USA.gov is the U.S. government's official web portal to all federal, state and local government web resources and services.